sensor_id;sensor_type;location;lat;lon;timestamp;P1;durP1;ratioP1;P2;durP2;ratioP2
46925;SDS011;32667;48.248;-1.700;2023-09-19T00:00:59;0.13;;;0.13;;
46925;SDS011;32667;48.248;-1.700;2023-09-19T00:03:27;0.20;;;0.20;;
46925;SDS011;32667;48.248;-1.700;2023-09-19T00:05:53;0.20;;;0.20;;
46925;SDS011;32667;48.248;-1.700;2023-09-19T00:08:20;0.20;;;0.20;;
46925;SDS011;32667;48.248;-1.700;2023-09-19T00:10:49;0.13;;;0.13;;
46925;SDS011;32667;48.248;-1.700;2023-09-19T00:13:15;0.20;;;0.20;;
46925;SDS011;32667;48.248;-1.700;2023-09-19T00:15:45;0.10;;;0.10;;
46925;SDS011;32667;48.248;-1.700;2023-09-19T00:18:15;0.20;;;0.20;;
46925;SDS011;32667;48.248;-1.700;2023-09-19T00:20:42;0.17;;;0.17;;
46925;SDS011;32667;48.248;-1.700;2023-09-19T00:23:07;0.20;;;0.20;;
46925;SDS011;32667;48.248;-1.700;2023-09-19T00:25:36;0.20;;;0.20;;
46925;SDS011;32667;48.248;-1.700;2023-09-19T00:28:04;0.20;;;0.20;;
46925;SDS011;32667;48.248;-1.700;2023-09-19T00:30:35;0.10;;;0.10;;
46925;SDS011;32667;48.248;-1.700;2023-09-19T00:33:03;0.10;;;0.10;;
46925;SDS011;32667;48.248;-1.700;2023-09-19T00:35:31;0.17;;;0.17;;
46925;SDS011;32667;48.248;-1.700;2023-09-19T00:37:58;0.10;;;0.10;;
46925;SDS011;32667;48.248;-1.700;2023-09-19T00:40:24;0.20;;;0.20;;
46925;SDS011;32667;48.248;-1.700;2023-09-19T00:42:50;0.20;;;0.20;;
46925;SDS011;32667;48.248;-1.700;2023-09-19T00:45:27;0.20;;;0.20;;
46925;SDS011;32667;48.248;-1.700;2023-09-19T00:47:53;0.15;;;0.15;;
46925;SDS011;32667;48.248;-1.700;2023-09-19T00:50:20;0.20;;;0.20;;
46925;SDS011;32667;48.248;-1.700;2023-09-19T00:52:48;0.17;;;0.17;;
46925;SDS011;32667;48.248;-1.700;2023-09-19T00:55:17;0.10;;;0.10;;
46925;SDS011;32667;48.248;-1.700;2023-09-19T00:57:46;0.20;;;0.20;;
46925;SDS011;32667;48.248;-1.700;2023-09-19T01:00:15;0.20;;;0.20;;
46925;SDS011;32667;48.248;-1.700;2023-09-19T01:02:41;0.20;;;0.20;;
46925;SDS011;32667;48.248;-1.700;2023-09-19T01:05:08;0.20;;;0.20;;
46925;SDS011;32667;48.248;-1.700;2023-09-19T01:07:38;0.20;;;0.20;;
46925;SDS011;32667;48.248;-1.700;2023-09-19T01:10:10;0.20;;;0.20;;
46925;SDS011;32667;48.248;-1.700;2023-09-19T01:12:54;0.20;;;0.20;;
46925;SDS011;32667;48.248;-1.700;2023-09-19T01:21:42;0.20;;;0.20;;
46925;SDS011;32667;48.248;-1.700;2023-09-19T01:24:42;0.20;;;0.20;;
46925;SDS011;32667;48.248;-1.700;2023-09-19T01:30:19;0.20;;;0.20;;
46925;SDS011;32667;48.248;-1.700;2023-09-19T01:32:52;0.20;;;0.20;;
46925;SDS011;32667;48.248;-1.700;2023-09-19T01:35:19;0.20;;;0.20;;
46925;SDS011;32667;48.248;-1.700;2023-09-19T01:37:44;0.20;;;0.20;;
46925;SDS011;32667;48.248;-1.700;2023-09-19T01:40:14;0.10;;;0.10;;
46925;SDS011;32667;48.248;-1.700;2023-09-19T01:42:57;0.20;;;0.20;;
46925;SDS011;32667;48.248;-1.700;2023-09-19T01:48:25;0.20;;;0.20;;
46925;SDS011;32667;48.248;-1.700;2023-09-19T01:51:08;0.20;;;0.20;;
46925;SDS011;32667;48.248;-1.700;2023-09-19T01:53:49;0.20;;;0.20;;
46925;SDS011;32667;48.248;-1.700;2023-09-19T01:56:31;0.20;;;0.20;;
46925;SDS011;32667;48.248;-1.700;2023-09-19T01:59:05;0.20;;;0.20;;
46925;SDS011;32667;48.248;-1.700;2023-09-19T02:01:36;0.20;;;0.20;;
46925;SDS011;32667;48.248;-1.700;2023-09-19T02:04:03;0.20;;;0.20;;
46925;SDS011;32667;48.248;-1.700;2023-09-19T02:06:29;0.20;;;0.20;;
46925;SDS011;32667;48.248;-1.700;2023-09-19T02:08:57;0.20;;;0.20;;
46925;SDS011;32667;48.248;-1.700;2023-09-19T02:11:24;0.20;;;0.20;;
46925;SDS011;32667;48.248;-1.700;2023-09-19T02:13:53;0.15;;;0.15;;
46925;SDS011;32667;48.248;-1.700;2023-09-19T02:16:19;0.10;;;0.10;;
46925;SDS011;32667;48.248;-1.700;2023-09-19T02:18:47;0.20;;;0.20;;
46925;SDS011;32667;48.248;-1.700;2023-09-19T02:21:16;0.20;;;0.20;;
46925;SDS011;32667;48.248;-1.700;2023-09-19T02:23:45;0.20;;;0.20;;
46925;SDS011;32667;48.248;-1.700;2023-09-19T02:26:15;0.20;;;0.20;;
46925;SDS011;32667;48.248;-1.700;2023-09-19T02:28:41;0.20;;;0.20;;
46925;SDS011;32667;48.248;-1.700;2023-09-19T02:31:11;0.20;;;0.20;;
46925;SDS011;32667;48.248;-1.700;2023-09-19T02:33:36;0.20;;;0.20;;
46925;SDS011;32667;48.248;-1.700;2023-09-19T02:36:07;0.10;;;0.10;;
46925;SDS011;32667;48.248;-1.700;2023-09-19T02:38:33;0.20;;;0.20;;
46925;SDS011;32667;48.248;-1.700;2023-09-19T02:40:59;0.20;;;0.20;;
46925;SDS011;32667;48.248;-1.700;2023-09-19T02:43:26;0.20;;;0.20;;
46925;SDS011;32667;48.248;-1.700;2023-09-19T02:45:54;0.10;;;0.10;;
46925;SDS011;32667;48.248;-1.700;2023-09-19T02:48:22;0.20;;;0.20;;
46925;SDS011;32667;48.248;-1.700;2023-09-19T02:50:51;0.20;;;0.20;;
46925;SDS011;32667;48.248;-1.700;2023-09-19T02:53:19;0.10;;;0.10;;
46925;SDS011;32667;48.248;-1.700;2023-09-19T02:55:45;0.20;;;0.20;;
46925;SDS011;32667;48.248;-1.700;2023-09-19T02:58:12;0.20;;;0.20;;
46925;SDS011;32667;48.248;-1.700;2023-09-19T03:00:39;0.20;;;0.20;;
46925;SDS011;32667;48.248;-1.700;2023-09-19T03:03:07;0.10;;;0.10;;
46925;SDS011;32667;48.248;-1.700;2023-09-19T03:05:36;0.10;;;0.10;;
46925;SDS011;32667;48.248;-1.700;2023-09-19T03:08:03;0.13;;;0.13;;
46925;SDS011;32667;48.248;-1.700;2023-09-19T03:10:29;0.20;;;0.20;;
46925;SDS011;32667;48.248;-1.700;2023-09-19T03:13:00;0.13;;;0.13;;
46925;SDS011;32667;48.248;-1.700;2023-09-19T03:15:29;0.20;;;0.20;;
46925;SDS011;32667;48.248;-1.700;2023-09-19T03:17:55;0.20;;;0.20;;
46925;SDS011;32667;48.248;-1.700;2023-09-19T03:20:23;0.20;;;0.20;;
46925;SDS011;32667;48.248;-1.700;2023-09-19T03:22:49;0.20;;;0.20;;
46925;SDS011;32667;48.248;-1.700;2023-09-19T03:25:15;0.20;;;0.20;;
46925;SDS011;32667;48.248;-1.700;2023-09-19T03:27:42;0.20;;;0.20;;
46925;SDS011;32667;48.248;-1.700;2023-09-19T03:30:08;0.20;;;0.20;;
46925;SDS011;32667;48.248;-1.700;2023-09-19T03:32:37;0.20;;;0.20;;
46925;SDS011;32667;48.248;-1.700;2023-09-19T03:35:14;0.20;;;0.20;;
46925;SDS011;32667;48.248;-1.700;2023-09-19T03:37:41;0.10;;;0.10;;
46925;SDS011;32667;48.248;-1.700;2023-09-19T03:40:08;0.10;;;0.10;;
46925;SDS011;32667;48.248;-1.700;2023-09-19T03:42:37;0.20;;;0.20;;
46925;SDS011;32667;48.248;-1.700;2023-09-19T03:45:04;0.20;;;0.20;;
46925;SDS011;32667;48.248;-1.700;2023-09-19T03:47:31;0.10;;;0.10;;
46925;SDS011;32667;48.248;-1.700;2023-09-19T03:49:57;0.10;;;0.10;;
46925;SDS011;32667;48.248;-1.700;2023-09-19T03:52:25;0.17;;;0.17;;
46925;SDS011;32667;48.248;-1.700;2023-09-19T03:54:50;0.20;;;0.20;;
46925;SDS011;32667;48.248;-1.700;2023-09-19T03:57:24;0.10;;;0.10;;
46925;SDS011;32667;48.248;-1.700;2023-09-19T03:59:50;0.20;;;0.20;;
46925;SDS011;32667;48.248;-1.700;2023-09-19T04:02:18;0.20;;;0.20;;
46925;SDS011;32667;48.248;-1.700;2023-09-19T04:04:52;0.20;;;0.20;;
46925;SDS011;32667;48.248;-1.700;2023-09-19T04:07:20;0.20;;;0.20;;
46925;SDS011;32667;48.248;-1.700;2023-09-19T04:09:47;0.10;;;0.10;;
46925;SDS011;32667;48.248;-1.700;2023-09-19T04:12:17;0.20;;;0.20;;
46925;SDS011;32667;48.248;-1.700;2023-09-19T04:14:43;0.13;;;0.13;;
46925;SDS011;32667;48.248;-1.700;2023-09-19T04:17:09;0.20;;;0.20;;
46925;SDS011;32667;48.248;-1.700;2023-09-19T04:19:35;0.20;;;0.20;;
46925;SDS011;32667;48.248;-1.700;2023-09-19T04:22:01;0.20;;;0.20;;
46925;SDS011;32667;48.248;-1.700;2023-09-19T04:24:32;0.20;;;0.20;;
46925;SDS011;32667;48.248;-1.700;2023-09-19T04:27:01;0.20;;;0.20;;
46925;SDS011;32667;48.248;-1.700;2023-09-19T04:29:30;0.20;;;0.20;;
46925;SDS011;32667;48.248;-1.700;2023-09-19T04:31:56;0.20;;;0.20;;
46925;SDS011;32667;48.248;-1.700;2023-09-19T04:34:24;0.20;;;0.20;;
46925;SDS011;32667;48.248;-1.700;2023-09-19T04:36:50;0.10;;;0.10;;
46925;SDS011;32667;48.248;-1.700;2023-09-19T04:39:16;0.15;;;0.15;;
46925;SDS011;32667;48.248;-1.700;2023-09-19T04:41:42;0.20;;;0.20;;
46925;SDS011;32667;48.248;-1.700;2023-09-19T04:44:12;0.20;;;0.20;;
46925;SDS011;32667;48.248;-1.700;2023-09-19T04:46:38;0.10;;;0.10;;
46925;SDS011;32667;48.248;-1.700;2023-09-19T04:49:06;0.20;;;0.20;;
46925;SDS011;32667;48.248;-1.700;2023-09-19T04:51:32;0.20;;;0.20;;
46925;SDS011;32667;48.248;-1.700;2023-09-19T04:53:59;0.13;;;0.13;;
46925;SDS011;32667;48.248;-1.700;2023-09-19T04:56:28;0.20;;;0.20;;
46925;SDS011;32667;48.248;-1.700;2023-09-19T04:58:55;0.10;;;0.10;;
46925;SDS011;32667;48.248;-1.700;2023-09-19T05:01:23;0.10;;;0.10;;
46925;SDS011;32667;48.248;-1.700;2023-09-19T05:03:49;0.10;;;0.10;;
46925;SDS011;32667;48.248;-1.700;2023-09-19T05:06:32;0.10;;;0.10;;
46925;SDS011;32667;48.248;-1.700;2023-09-19T05:09:01;0.20;;;0.20;;
46925;SDS011;32667;48.248;-1.700;2023-09-19T05:11:30;0.20;;;0.20;;
46925;SDS011;32667;48.248;-1.700;2023-09-19T05:13:59;0.20;;;0.20;;
46925;SDS011;32667;48.248;-1.700;2023-09-19T05:16:29;0.20;;;0.20;;
46925;SDS011;32667;48.248;-1.700;2023-09-19T05:18:58;0.20;;;0.20;;
46925;SDS011;32667;48.248;-1.700;2023-09-19T05:21:27;0.20;;;0.20;;
46925;SDS011;32667;48.248;-1.700;2023-09-19T05:23:56;0.20;;;0.20;;
46925;SDS011;32667;48.248;-1.700;2023-09-19T05:26:22;0.20;;;0.20;;
46925;SDS011;32667;48.248;-1.700;2023-09-19T05:28:47;0.10;;;0.10;;
46925;SDS011;32667;48.248;-1.700;2023-09-19T05:31:13;0.20;;;0.20;;
46925;SDS011;32667;48.248;-1.700;2023-09-19T05:33:40;0.20;;;0.20;;
46925;SDS011;32667;48.248;-1.700;2023-09-19T05:36:06;0.20;;;0.20;;
46925;SDS011;32667;48.248;-1.700;2023-09-19T05:38:34;0.15;;;0.15;;
46925;SDS011;32667;48.248;-1.700;2023-09-19T05:41:00;0.20;;;0.20;;
46925;SDS011;32667;48.248;-1.700;2023-09-19T05:43:27;0.20;;;0.20;;
46925;SDS011;32667;48.248;-1.700;2023-09-19T05:45:55;0.20;;;0.20;;
46925;SDS011;32667;48.248;-1.700;2023-09-19T05:48:23;0.10;;;0.10;;
46925;SDS011;32667;48.248;-1.700;2023-09-19T05:50:48;0.20;;;0.20;;
46925;SDS011;32667;48.248;-1.700;2023-09-19T05:53:16;0.17;;;0.17;;
46925;SDS011;32667;48.248;-1.700;2023-09-19T05:55:59;0.17;;;0.17;;
46925;SDS011;32667;48.248;-1.700;2023-09-19T05:58:27;0.20;;;0.20;;
46925;SDS011;32667;48.248;-1.700;2023-09-19T06:00:53;0.20;;;0.20;;
46925;SDS011;32667;48.248;-1.700;2023-09-19T06:03:21;0.20;;;0.20;;
46925;SDS011;32667;48.248;-1.700;2023-09-19T06:05:48;0.20;;;0.20;;
46925;SDS011;32667;48.248;-1.700;2023-09-19T06:08:14;0.10;;;0.10;;
46925;SDS011;32667;48.248;-1.700;2023-09-19T06:10:42;0.20;;;0.20;;
46925;SDS011;32667;48.248;-1.700;2023-09-19T06:13:08;0.20;;;0.20;;
46925;SDS011;32667;48.248;-1.700;2023-09-19T06:15:35;0.20;;;0.20;;
46925;SDS011;32667;48.248;-1.700;2023-09-19T06:18:01;0.15;;;0.15;;
46925;SDS011;32667;48.248;-1.700;2023-09-19T06:20:30;0.20;;;0.20;;
46925;SDS011;32667;48.248;-1.700;2023-09-19T06:22:56;0.20;;;0.20;;
46925;SDS011;32667;48.248;-1.700;2023-09-19T06:25:27;0.10;;;0.10;;
46925;SDS011;32667;48.248;-1.700;2023-09-19T06:27:53;0.10;;;0.10;;
46925;SDS011;32667;48.248;-1.700;2023-09-19T06:30:21;0.20;;;0.20;;
46925;SDS011;32667;48.248;-1.700;2023-09-19T06:32:58;0.20;;;0.20;;
46925;SDS011;32667;48.248;-1.700;2023-09-19T06:35:24;0.20;;;0.20;;
46925;SDS011;32667;48.248;-1.700;2023-09-19T06:38:03;0.20;;;0.20;;
46925;SDS011;32667;48.248;-1.700;2023-09-19T06:40:30;0.20;;;0.20;;
46925;SDS011;32667;48.248;-1.700;2023-09-19T06:43:01;0.20;;;0.20;;
46925;SDS011;32667;48.248;-1.700;2023-09-19T06:45:28;0.20;;;0.20;;
46925;SDS011;32667;48.248;-1.700;2023-09-19T06:48:03;0.20;;;0.20;;
46925;SDS011;32667;48.248;-1.700;2023-09-19T06:50:30;0.20;;;0.20;;
46925;SDS011;32667;48.248;-1.700;2023-09-19T06:52:59;0.20;;;0.20;;
46925;SDS011;32667;48.248;-1.700;2023-09-19T06:55:27;0.20;;;0.20;;
46925;SDS011;32667;48.248;-1.700;2023-09-19T06:57:56;0.20;;;0.20;;
46925;SDS011;32667;48.248;-1.700;2023-09-19T07:00:25;0.20;;;0.20;;
46925;SDS011;32667;48.248;-1.700;2023-09-19T07:05:37;0.20;;;0.20;;
46925;SDS011;32667;48.248;-1.700;2023-09-19T07:08:04;0.20;;;0.20;;
46925;SDS011;32667;48.248;-1.700;2023-09-19T07:10:42;0.10;;;0.10;;
46925;SDS011;32667;48.248;-1.700;2023-09-19T07:13:13;0.20;;;0.20;;
46925;SDS011;32667;48.248;-1.700;2023-09-19T07:15:41;0.20;;;0.20;;
46925;SDS011;32667;48.248;-1.700;2023-09-19T07:18:20;0.20;;;0.20;;
46925;SDS011;32667;48.248;-1.700;2023-09-19T07:20:49;0.20;;;0.20;;
46925;SDS011;32667;48.248;-1.700;2023-09-19T07:23:16;0.20;;;0.20;;
46925;SDS011;32667;48.248;-1.700;2023-09-19T07:25:48;0.10;;;0.10;;
46925;SDS011;32667;48.248;-1.700;2023-09-19T07:28:16;0.17;;;0.17;;
46925;SDS011;32667;48.248;-1.700;2023-09-19T07:30:50;0.20;;;0.20;;
46925;SDS011;32667;48.248;-1.700;2023-09-19T07:33:15;0.20;;;0.20;;
46925;SDS011;32667;48.248;-1.700;2023-09-19T07:35:47;0.15;;;0.15;;
46925;SDS011;32667;48.248;-1.700;2023-09-19T07:38:13;0.20;;;0.20;;
46925;SDS011;32667;48.248;-1.700;2023-09-19T07:40:42;0.20;;;0.20;;
46925;SDS011;32667;48.248;-1.700;2023-09-19T07:43:08;0.20;;;0.20;;
46925;SDS011;32667;48.248;-1.700;2023-09-19T07:45:34;0.20;;;0.20;;
46925;SDS011;32667;48.248;-1.700;2023-09-19T07:48:03;0.20;;;0.20;;
46925;SDS011;32667;48.248;-1.700;2023-09-19T07:50:39;0.20;;;0.20;;
46925;SDS011;32667;48.248;-1.700;2023-09-19T07:53:06;0.20;;;0.20;;
46925;SDS011;32667;48.248;-1.700;2023-09-19T07:55:39;0.10;;;0.10;;
46925;SDS011;32667;48.248;-1.700;2023-09-19T07:58:06;0.10;;;0.10;;
46925;SDS011;32667;48.248;-1.700;2023-09-19T08:00:35;0.20;;;0.20;;
46925;SDS011;32667;48.248;-1.700;2023-09-19T08:03:01;0.20;;;0.20;;
46925;SDS011;32667;48.248;-1.700;2023-09-19T08:05:28;0.10;;;0.10;;
46925;SDS011;32667;48.248;-1.700;2023-09-19T08:07:56;0.20;;;0.20;;
46925;SDS011;32667;48.248;-1.700;2023-09-19T08:10:24;0.20;;;0.20;;
46925;SDS011;32667;48.248;-1.700;2023-09-19T08:12:52;0.10;;;0.10;;
46925;SDS011;32667;48.248;-1.700;2023-09-19T08:15:23;0.20;;;0.20;;
46925;SDS011;32667;48.248;-1.700;2023-09-19T08:17:51;0.10;;;0.10;;
46925;SDS011;32667;48.248;-1.700;2023-09-19T08:20:17;0.10;;;0.10;;
46925;SDS011;32667;48.248;-1.700;2023-09-19T08:22:52;0.20;;;0.20;;
46925;SDS011;32667;48.248;-1.700;2023-09-19T08:25:24;0.20;;;0.20;;
46925;SDS011;32667;48.248;-1.700;2023-09-19T08:27:54;0.10;;;0.10;;
46925;SDS011;32667;48.248;-1.700;2023-09-19T08:30:26;0.10;;;0.10;;
46925;SDS011;32667;48.248;-1.700;2023-09-19T08:33:01;0.17;;;0.17;;
46925;SDS011;32667;48.248;-1.700;2023-09-19T08:35:29;0.13;;;0.13;;
46925;SDS011;32667;48.248;-1.700;2023-09-19T08:37:55;0.10;;;0.10;;
46925;SDS011;32667;48.248;-1.700;2023-09-19T08:40:24;0.20;;;0.20;;
46925;SDS011;32667;48.248;-1.700;2023-09-19T08:42:55;0.20;;;0.20;;
46925;SDS011;32667;48.248;-1.700;2023-09-19T08:45:24;0.20;;;0.20;;
46925;SDS011;32667;48.248;-1.700;2023-09-19T08:50:29;0.10;;;0.10;;
46925;SDS011;32667;48.248;-1.700;2023-09-19T08:53:05;0.20;;;0.20;;
46925;SDS011;32667;48.248;-1.700;2023-09-19T08:55:43;0.10;;;0.10;;
46925;SDS011;32667;48.248;-1.700;2023-09-19T08:58:13;0.10;;;0.10;;
46925;SDS011;32667;48.248;-1.700;2023-09-19T09:00:47;0.20;;;0.20;;
46925;SDS011;32667;48.248;-1.700;2023-09-19T09:03:16;0.20;;;0.20;;
46925;SDS011;32667;48.248;-1.700;2023-09-19T09:05:44;0.10;;;0.10;;
46925;SDS011;32667;48.248;-1.700;2023-09-19T09:08:14;0.10;;;0.10;;
46925;SDS011;32667;48.248;-1.700;2023-09-19T09:10:43;0.20;;;0.20;;
46925;SDS011;32667;48.248;-1.700;2023-09-19T09:13:09;0.20;;;0.20;;
46925;SDS011;32667;48.248;-1.700;2023-09-19T09:15:39;0.20;;;0.20;;
46925;SDS011;32667;48.248;-1.700;2023-09-19T09:18:06;0.10;;;0.10;;
46925;SDS011;32667;48.248;-1.700;2023-09-19T09:20:32;0.10;;;0.10;;
46925;SDS011;32667;48.248;-1.700;2023-09-19T09:23:01;0.10;;;0.10;;
46925;SDS011;32667;48.248;-1.700;2023-09-19T09:25:46;0.10;;;0.10;;
46925;SDS011;32667;48.248;-1.700;2023-09-19T09:28:18;0.20;;;0.20;;
46925;SDS011;32667;48.248;-1.700;2023-09-19T09:30:54;0.20;;;0.20;;
46925;SDS011;32667;48.248;-1.700;2023-09-19T09:33:20;0.10;;;0.10;;
46925;SDS011;32667;48.248;-1.700;2023-09-19T09:35:56;0.10;;;0.10;;
46925;SDS011;32667;48.248;-1.700;2023-09-19T09:38:47;0.10;;;0.10;;
46925;SDS011;32667;48.248;-1.700;2023-09-19T09:41:16;0.10;;;0.10;;
46925;SDS011;32667;48.248;-1.700;2023-09-19T09:43:54;0.10;;;0.10;;
46925;SDS011;32667;48.248;-1.700;2023-09-19T09:46:21;0.10;;;0.10;;
46925;SDS011;32667;48.248;-1.700;2023-09-19T09:48:47;0.10;;;0.10;;
46925;SDS011;32667;48.248;-1.700;2023-09-19T09:51:39;0.20;;;0.20;;
46925;SDS011;32667;48.248;-1.700;2023-09-19T09:54:11;0.15;;;0.15;;
46925;SDS011;32667;48.248;-1.700;2023-09-19T09:56:53;0.10;;;0.10;;
46925;SDS011;32667;48.248;-1.700;2023-09-19T09:59:39;0.10;;;0.10;;
46925;SDS011;32667;48.248;-1.700;2023-09-19T10:02:16;0.10;;;0.10;;
46925;SDS011;32667;48.248;-1.700;2023-09-19T10:04:54;0.10;;;0.10;;
46925;SDS011;32667;48.248;-1.700;2023-09-19T10:07:35;0.10;;;0.10;;
46925;SDS011;32667;48.248;-1.700;2023-09-19T10:10:06;0.10;;;0.10;;
46925;SDS011;32667;48.248;-1.700;2023-09-19T10:12:49;0.10;;;0.10;;
46925;SDS011;32667;48.248;-1.700;2023-09-19T10:15:27;0.10;;;0.10;;
46925;SDS011;32667;48.248;-1.700;2023-09-19T10:17:57;0.10;;;0.10;;
46925;SDS011;32667;48.248;-1.700;2023-09-19T10:20:29;0.10;;;0.10;;
46925;SDS011;32667;48.248;-1.700;2023-09-19T10:23:01;0.10;;;0.10;;
46925;SDS011;32667;48.248;-1.700;2023-09-19T10:25:29;0.10;;;0.10;;
46925;SDS011;32667;48.248;-1.700;2023-09-19T10:27:59;0.10;;;0.10;;
46925;SDS011;32667;48.248;-1.700;2023-09-19T10:30:32;0.10;;;0.10;;
46925;SDS011;32667;48.248;-1.700;2023-09-19T10:33:02;0.10;;;0.10;;
46925;SDS011;32667;48.248;-1.700;2023-09-19T10:35:30;0.17;;;0.17;;
46925;SDS011;32667;48.248;-1.700;2023-09-19T10:38:01;0.10;;;0.10;;
46925;SDS011;32667;48.248;-1.700;2023-09-19T10:40:29;0.10;;;0.10;;
46925;SDS011;32667;48.248;-1.700;2023-09-19T10:43:02;0.10;;;0.10;;
46925;SDS011;32667;48.248;-1.700;2023-09-19T10:45:32;0.15;;;0.15;;
46925;SDS011;32667;48.248;-1.700;2023-09-19T10:48:00;0.10;;;0.10;;
46925;SDS011;32667;48.248;-1.700;2023-09-19T10:50:31;0.10;;;0.10;;
46925;SDS011;32667;48.248;-1.700;2023-09-19T10:53:12;0.10;;;0.10;;
46925;SDS011;32667;48.248;-1.700;2023-09-19T10:55:40;0.10;;;0.10;;
46925;SDS011;32667;48.248;-1.700;2023-09-19T10:58:15;0.10;;;0.10;;
46925;SDS011;32667;48.248;-1.700;2023-09-19T11:00:59;0.10;;;0.10;;
46925;SDS011;32667;48.248;-1.700;2023-09-19T11:03:37;0.10;;;0.10;;
46925;SDS011;32667;48.248;-1.700;2023-09-19T11:06:15;0.10;;;0.10;;
46925;SDS011;32667;48.248;-1.700;2023-09-19T11:09:03;0.10;;;0.10;;
46925;SDS011;32667;48.248;-1.700;2023-09-19T11:11:41;0.13;;;0.13;;
46925;SDS011;32667;48.248;-1.700;2023-09-19T11:30:48;0.10;;;0.10;;
46925;SDS011;32667;48.248;-1.700;2023-09-19T11:43:49;0.10;;;0.10;;
46925;SDS011;32667;48.248;-1.700;2023-09-19T11:46:17;0.10;;;0.10;;
46925;SDS011;32667;48.248;-1.700;2023-09-19T11:48:53;0.10;;;0.10;;
46925;SDS011;32667;48.248;-1.700;2023-09-19T11:51:37;0.10;;;0.10;;
46925;SDS011;32667;48.248;-1.700;2023-09-19T11:54:10;0.10;;;0.10;;
46925;SDS011;32667;48.248;-1.700;2023-09-19T11:56:48;0.10;;;0.10;;
46925;SDS011;32667;48.248;-1.700;2023-09-19T11:59:22;0.10;;;0.10;;
46925;SDS011;32667;48.248;-1.700;2023-09-19T12:01:53;0.10;;;0.10;;
46925;SDS011;32667;48.248;-1.700;2023-09-19T12:04:46;0.10;;;0.10;;
46925;SDS011;32667;48.248;-1.700;2023-09-19T12:07:15;0.10;;;0.10;;
46925;SDS011;32667;48.248;-1.700;2023-09-19T12:09:45;0.10;;;0.10;;
46925;SDS011;32667;48.248;-1.700;2023-09-19T12:12:25;0.10;;;0.10;;
46925;SDS011;32667;48.248;-1.700;2023-09-19T12:14:55;0.10;;;0.10;;
46925;SDS011;32667;48.248;-1.700;2023-09-19T12:17:23;0.10;;;0.10;;
46925;SDS011;32667;48.248;-1.700;2023-09-19T12:20:01;0.10;;;0.10;;
46925;SDS011;32667;48.248;-1.700;2023-09-19T12:22:42;0.10;;;0.10;;
46925;SDS011;32667;48.248;-1.700;2023-09-19T12:25:14;0.10;;;0.10;;
46925;SDS011;32667;48.248;-1.700;2023-09-19T12:27:43;0.10;;;0.10;;
46925;SDS011;32667;48.248;-1.700;2023-09-19T12:30:18;0.10;;;0.10;;
46925;SDS011;32667;48.248;-1.700;2023-09-19T12:32:46;0.10;;;0.10;;
46925;SDS011;32667;48.248;-1.700;2023-09-19T12:35:27;0.10;;;0.10;;
46925;SDS011;32667;48.248;-1.700;2023-09-19T12:37:55;0.10;;;0.10;;
46925;SDS011;32667;48.248;-1.700;2023-09-19T12:40:22;0.10;;;0.10;;
46925;SDS011;32667;48.248;-1.700;2023-09-19T12:42:52;0.10;;;0.10;;
46925;SDS011;32667;48.248;-1.700;2023-09-19T12:45:23;0.10;;;0.10;;
46925;SDS011;32667;48.248;-1.700;2023-09-19T12:51:07;0.10;;;0.10;;
46925;SDS011;32667;48.248;-1.700;2023-09-19T12:56:21;0.10;;;0.10;;
46925;SDS011;32667;48.248;-1.700;2023-09-19T12:58:54;0.10;;;0.10;;
46925;SDS011;32667;48.248;-1.700;2023-09-19T13:01:28;0.10;;;0.10;;
46925;SDS011;32667;48.248;-1.700;2023-09-19T13:06:58;0.10;;;0.10;;
46925;SDS011;32667;48.248;-1.700;2023-09-19T13:09:30;5.57;;;0.32;;
46925;SDS011;32667;48.248;-1.700;2023-09-19T13:12:03;0.10;;;0.10;;
46925;SDS011;32667;48.248;-1.700;2023-09-19T13:15:13;0.10;;;0.10;;
46925;SDS011;32667;48.248;-1.700;2023-09-19T13:17:48;0.03;;;0.03;;
46925;SDS011;32667;48.248;-1.700;2023-09-19T13:20:23;0.08;;;0.08;;
46925;SDS011;32667;48.248;-1.700;2023-09-19T13:22:57;0.10;;;0.10;;
46925;SDS011;32667;48.248;-1.700;2023-09-19T13:25:35;0.10;;;0.10;;
46925;SDS011;32667;48.248;-1.700;2023-09-19T13:28:08;0.00;;;0.00;;
46925;SDS011;32667;48.248;-1.700;2023-09-19T13:30:36;0.00;;;0.00;;
46925;SDS011;32667;48.248;-1.700;2023-09-19T13:33:11;0.00;;;0.00;;
46925;SDS011;32667;48.248;-1.700;2023-09-19T13:35:39;0.10;;;0.10;;
46925;SDS011;32667;48.248;-1.700;2023-09-19T13:38:07;0.00;;;0.00;;
46925;SDS011;32667;48.248;-1.700;2023-09-19T13:40:36;0.00;;;0.00;;
46925;SDS011;32667;48.248;-1.700;2023-09-19T13:43:06;0.00;;;0.00;;
46925;SDS011;32667;48.248;-1.700;2023-09-19T13:45:36;0.00;;;0.00;;
46925;SDS011;32667;48.248;-1.700;2023-09-19T13:48:05;0.00;;;0.00;;
46925;SDS011;32667;48.248;-1.700;2023-09-19T13:50:31;0.00;;;0.00;;
46925;SDS011;32667;48.248;-1.700;2023-09-19T13:52:59;0.10;;;0.10;;
46925;SDS011;32667;48.248;-1.700;2023-09-19T13:55:25;0.10;;;0.10;;
46925;SDS011;32667;48.248;-1.700;2023-09-19T13:57:51;0.10;;;0.10;;
46925;SDS011;32667;48.248;-1.700;2023-09-19T14:00:21;0.10;;;0.10;;
46925;SDS011;32667;48.248;-1.700;2023-09-19T14:02:47;0.10;;;0.10;;
46925;SDS011;32667;48.248;-1.700;2023-09-19T14:05:14;0.00;;;0.00;;
46925;SDS011;32667;48.248;-1.700;2023-09-19T14:07:42;0.00;;;0.00;;
46925;SDS011;32667;48.248;-1.700;2023-09-19T14:10:09;0.00;;;0.00;;
46925;SDS011;32667;48.248;-1.700;2023-09-19T14:12:38;0.10;;;0.10;;
46925;SDS011;32667;48.248;-1.700;2023-09-19T14:15:10;0.10;;;0.10;;
46925;SDS011;32667;48.248;-1.700;2023-09-19T14:17:39;0.00;;;0.00;;
46925;SDS011;32667;48.248;-1.700;2023-09-19T14:20:09;0.10;;;0.10;;
46925;SDS011;32667;48.248;-1.700;2023-09-19T14:22:36;0.10;;;0.10;;
46925;SDS011;32667;48.248;-1.700;2023-09-19T14:25:05;0.00;;;0.00;;
46925;SDS011;32667;48.248;-1.700;2023-09-19T14:27:34;0.00;;;0.00;;
46925;SDS011;32667;48.248;-1.700;2023-09-19T14:30:00;0.00;;;0.00;;
46925;SDS011;32667;48.248;-1.700;2023-09-19T14:32:25;0.10;;;0.10;;
46925;SDS011;32667;48.248;-1.700;2023-09-19T14:34:53;0.10;;;0.10;;
46925;SDS011;32667;48.248;-1.700;2023-09-19T14:37:19;0.00;;;0.00;;
46925;SDS011;32667;48.248;-1.700;2023-09-19T14:39:50;0.00;;;0.00;;
46925;SDS011;32667;48.248;-1.700;2023-09-19T14:42:15;0.00;;;0.00;;
46925;SDS011;32667;48.248;-1.700;2023-09-19T14:44:43;0.00;;;0.00;;
46925;SDS011;32667;48.248;-1.700;2023-09-19T14:47:09;0.10;;;0.10;;
46925;SDS011;32667;48.248;-1.700;2023-09-19T14:49:41;0.10;;;0.10;;
46925;SDS011;32667;48.248;-1.700;2023-09-19T14:52:07;0.00;;;0.00;;
46925;SDS011;32667;48.248;-1.700;2023-09-19T14:54:37;0.00;;;0.00;;
46925;SDS011;32667;48.248;-1.700;2023-09-19T14:57:06;0.00;;;0.00;;
46925;SDS011;32667;48.248;-1.700;2023-09-19T14:59:34;0.10;;;0.10;;
46925;SDS011;32667;48.248;-1.700;2023-09-19T15:02:03;0.10;;;0.10;;
46925;SDS011;32667;48.248;-1.700;2023-09-19T15:04:32;0.10;;;0.10;;
46925;SDS011;32667;48.248;-1.700;2023-09-19T15:06:58;0.10;;;0.10;;
46925;SDS011;32667;48.248;-1.700;2023-09-19T15:09:25;0.10;;;0.10;;
46925;SDS011;32667;48.248;-1.700;2023-09-19T15:11:53;0.00;;;0.00;;
46925;SDS011;32667;48.248;-1.700;2023-09-19T15:14:20;0.05;;;0.05;;
46925;SDS011;32667;48.248;-1.700;2023-09-19T15:16:46;0.00;;;0.00;;
46925;SDS011;32667;48.248;-1.700;2023-09-19T15:19:20;0.10;;;0.10;;
46925;SDS011;32667;48.248;-1.700;2023-09-19T15:21:47;0.05;;;0.05;;
46925;SDS011;32667;48.248;-1.700;2023-09-19T15:24:20;0.03;;;0.03;;
46925;SDS011;32667;48.248;-1.700;2023-09-19T15:26:51;0.10;;;0.10;;
46925;SDS011;32667;48.248;-1.700;2023-09-19T15:29:23;0.10;;;0.10;;
46925;SDS011;32667;48.248;-1.700;2023-09-19T15:31:51;0.10;;;0.10;;
46925;SDS011;32667;48.248;-1.700;2023-09-19T15:34:28;0.10;;;0.10;;
46925;SDS011;32667;48.248;-1.700;2023-09-19T15:36:59;0.10;;;0.10;;
46925;SDS011;32667;48.248;-1.700;2023-09-19T15:39:25;0.00;;;0.00;;
46925;SDS011;32667;48.248;-1.700;2023-09-19T15:41:50;0.08;;;0.08;;
46925;SDS011;32667;48.248;-1.700;2023-09-19T15:44:21;0.10;;;0.10;;